Time,TemperatureF,DewpointF,PressureIn,WindDirection,WindDirectionDegrees,WindSpeedMPH,WindSpeedGustMPH,Humidity,HourlyPrecipIn,Conditions,Clouds,dailyrainin,SoftwareType,DateUTC
2013-03-01 00:07:00,47.0,36.0,29.89,NNW,327,0.0,-999.0,67,-99.99,,,0.00,weatherlink.com 1.10,2013-03-01 05:07:00,
2013-03-01 00:36:00,47.0,36.0,29.89,NW,314,0.0,-999.0,66,-99.99,,,0.00,weatherlink.com 1.10,2013-03-01 05:36:00,
2013-03-01 00:37:00,47.0,36.0,29.89,NW,314,0.0,-999.0,66,-99.99,,,0.00,weatherlink.com 1.10,2013-03-01 05:37:00,
2013-03-01 00:52:00,46.9,36.0,29.89,NNW,348,0.0,-999.0,65,-99.99,,,0.00,weatherlink.com 1.10,2013-03-01 05:52:00,
2013-03-01 01:07:00,46.6,36.0,29.89,NNW,343,0.0,-999.0,66,-99.99,,,0.00,weatherlink.com 1.10,2013-03-01 06:07:00,
2013-03-01 01:22:00,46.2,36.0,29.90,NNW,343,0.0,-999.0,67,-99.99,,,0.00,weatherlink.com 1.10,2013-03-01 06:22:00,
2013-03-01 01:37:00,45.9,35.0,29.90,North,5,1.0,-999.0,66,-99.99,,,0.00,weatherlink.com 1.10,2013-03-01 06:37:00,
2013-03-01 01:52:00,45.5,34.0,29.89,NNW,340,0.0,-999.0,65,-99.99,,,0.00,weatherlink.com 1.10,2013-03-01 06:52:00,
2013-03-01 02:07:00,45.2,34.0,29.90,NW,313,0.0,-999.0,65,-99.99,,,0.00,weatherlink.com 1.10,2013-03-01 07:07:00,
2013-03-01 02:22:00,44.9,35.0,29.90,NW,313,0.0,-999.0,68,-99.99,,,0.00,weatherlink.com 1.10,2013-03-01 07:22:00,
2013-03-01 02:37:00,44.6,35.0,29.90,NW,313,0.0,-999.0,68,-99.99,,,0.00,weatherlink.com 1.10,2013-03-01 07:37:00,
2013-03-01 02:52:00,44.3,35.0,29.90,NW,313,0.0,-999.0,69,-99.99,,,0.00,weatherlink.com 1.10,2013-03-01 07:52:00,
2013-03-01 03:07:00,44.2,34.0,29.91,NW,312,0.0,-999.0,68,-99.99,,,0.00,weatherlink.com 1.10,2013-03-01 08:07:00,
2013-03-01 03:22:00,43.9,34.0,29.91,WSW,241,0.0,-999.0,68,-99.99,,,0.00,weatherlink.com 1.10,2013-03-01 08:22:00,
2013-03-01 03:37:00,43.7,34.0,29.91,WSW,241,0.0,-999.0,69,-99.99,,,0.00,weatherlink.com 1.10,2013-03-01 08:37:00,
2013-03-01 03:52:00,43.4,34.0,29.91,WSW,241,0.0,-999.0,69,-99.99,,,0.00,weatherlink.com 1.10,2013-03-01 08:52:00,
2013-03-01 04:08:00,43.3,34.0,29.91,WSW,241,0.0,-999.0,70,-99.99,,,0.00,weatherlink.com 1.10,2013-03-01 09:08:00,
2013-03-01 04:23:00,43.0,34.0,29.91,NNW,338,0.0,-999.0,70,-99.99,,,0.00,weatherlink.com 1.10,2013-03-01 09:23:00,
2013-03-01 04:38:00,42.9,33.0,29.91,WNW,284,0.0,-999.0,69,-99.99,,,0.00,weatherlink.com 1.10,2013-03-01 09:38:00,
2013-03-01 04:53:00,42.7,34.0,29.91,West,273,0.0,-999.0,70,-99.99,,,0.00,weatherlink.com 1.10,2013-03-01 09:53:00,
2013-03-01 05:08:00,42.5,34.0,29.91,West,273,0.0,-999.0,72,-99.99,,,0.00,weatherlink.com 1.10,2013-03-01 10:08:00,
2013-03-01 05:23:00,42.2,33.0,29.91,West,273,0.0,-999.0,71,-99.99,,,0.00,weatherlink.com 1.10,2013-03-01 10:23:00,
2013-03-01 05:38:00,42.0,33.0,29.91,NW,304,0.0,-999.0,71,-99.99,,,0.00,weatherlink.com 1.10,2013-03-01 10:38:00,
2013-03-01 05:53:00,41.8,33.0,29.91,NNW,333,0.0,-999.0,72,-99.99,,,0.00,weatherlink.com 1.10,2013-03-01 10:53:00,
2013-03-01 06:08:00,41.6,33.0,29.91,NNW,333,0.0,-999.0,72,-99.99,,,0.00,weatherlink.com 1.10,2013-03-01 11:08:00,
2013-03-01 06:23:00,41.5,33.0,29.91,NNW,333,0.0,-999.0,73,-99.99,,,0.00,weatherlink.com 1.10,2013-03-01 11:23:00,
2013-03-01 06:38:00,41.3,34.0,29.91,NNW,333,0.0,-999.0,74,-99.99,,,0.00,weatherlink.com 1.10,2013-03-01 11:38:00,
2013-03-01 06:53:00,41.0,33.0,29.92,NNW,333,0.0,-999.0,74,-99.99,,,0.00,weatherlink.com 1.10,2013-03-01 11:53:00,
2013-03-01 07:08:00,40.8,33.0,29.92,NNW,333,0.0,-999.0,74,-99.99,,,0.00,weatherlink.com 1.10,2013-03-01 12:08:00,
2013-03-01 07:23:00,40.8,33.0,29.92,NNW,333,0.0,-999.0,75,-99.99,,,0.00,weatherlink.com 1.10,2013-03-01 12:23:00,
2013-03-01 07:38:00,41.0,34.0,29.92,NNW,333,0.0,-999.0,75,-99.99,,,0.00,weatherlink.com 1.10,2013-03-01 12:38:00,
2013-03-01 07:53:00,41.5,34.0,29.93,NNW,344,0.0,-999.0,75,-99.99,,,0.00,weatherlink.com 1.10,2013-03-01 12:53:00,
2013-03-01 08:08:00,41.9,34.0,29.92,NW,309,0.0,-999.0,74,-99.99,,,0.00,weatherlink.com 1.10,2013-03-01 13:08:00,
2013-03-01 08:23:00,42.3,35.0,29.94,NW,309,1.0,-999.0,74,-99.99,,,0.00,weatherlink.com 1.10,2013-03-01 13:23:00,
2013-03-01 08:38:00,42.7,34.0,29.94,NNW,340,0.0,-999.0,72,-99.99,,,0.00,weatherlink.com 1.10,2013-03-01 13:38:00,
2013-03-01 08:53:00,43.4,35.0,29.93,NNW,340,2.0,-999.0,72,-99.99,,,0.00,weatherlink.com 1.10,2013-03-01 13:53:00,
2013-03-01 09:08:00,44.2,35.0,29.94,NNW,340,0.0,-999.0,71,-99.99,,,0.00,weatherlink.com 1.10,2013-03-01 14:08:00,
2013-03-01 09:23:00,44.9,35.0,29.94,NNW,340,0.0,-999.0,69,-99.99,,,0.00,weatherlink.com 1.10,2013-03-01 14:23:00,
2013-03-01 09:38:00,45.4,35.0,29.94,NNW,340,0.0,-999.0,67,-99.99,,,0.00,weatherlink.com 1.10,2013-03-01 14:38:00,
2013-03-01 09:53:00,46.5,36.0,29.93,NNW,340,0.0,-999.0,66,-99.99,,,0.00,weatherlink.com 1.10,2013-03-01 14:53:00,
2013-03-01 10:08:00,47.8,36.0,29.94,NNW,340,1.0,-999.0,63,-99.99,,,0.00,weatherlink.com 1.10,2013-03-01 15:08:00,
2013-03-01 10:23:00,48.8,36.0,29.94,WNW,294,0.0,-999.0,62,-99.99,,,0.00,weatherlink.com 1.10,2013-03-01 15:23:00,
2013-03-01 10:38:00,49.4,36.0,29.94,NW,321,0.0,-999.0,60,-99.99,,,0.00,weatherlink.com 1.10,2013-03-01 15:38:00,
2013-03-01 10:53:00,50.0,36.0,29.94,NW,313,0.0,-999.0,58,-99.99,,,0.00,weatherlink.com 1.10,2013-03-01 15:53:00,
2013-03-01 11:08:00,50.3,36.0,29.94,WNW,287,0.0,-999.0,58,-99.99,,,0.00,weatherlink.com 1.10,2013-03-01 16:08:00,
2013-03-01 11:23:00,51.2,35.0,29.93,North,5,0.0,-999.0,55,-99.99,,,0.00,weatherlink.com 1.10,2013-03-01 16:23:00,
2013-03-01 11:38:00,52.3,36.0,29.93,North,350,0.0,-999.0,54,-99.99,,,0.00,weatherlink.com 1.10,2013-03-01 16:38:00,
2013-03-01 11:53:00,52.7,35.0,29.92,North,360,0.0,-999.0,51,-99.99,,,0.00,weatherlink.com 1.10,2013-03-01 16:53:00,
2013-03-01 12:08:00,52.4,35.0,29.92,North,355,0.0,-999.0,51,-99.99,,,0.00,weatherlink.com 1.10,2013-03-01 17:08:00,
2013-03-01 12:23:00,52.9,35.0,29.91,WSW,254,0.0,-999.0,50,-99.99,,,0.00,weatherlink.com 1.10,2013-03-01 17:23:00,
2013-03-01 12:38:00,53.0,35.0,29.90,WNW,286,1.0,-999.0,51,-99.99,,,0.00,weatherlink.com 1.10,2013-03-01 17:38:00,
2013-03-01 12:53:00,53.8,35.0,29.90,WNW,289,1.0,-999.0,50,-99.99,,,0.00,weatherlink.com 1.10,2013-03-01 17:53:00,
2013-03-01 13:08:00,53.4,34.0,29.89,NNW,336,0.0,-999.0,49,-99.99,,,0.00,weatherlink.com 1.10,2013-03-01 18:08:00,
2013-03-01 13:23:00,54.1,36.0,29.89,North,360,0.0,-999.0,51,-99.99,,,0.00,weatherlink.com 1.10,2013-03-01 18:23:00,
2013-03-01 13:38:00,54.2,36.0,29.88,West,273,0.0,-999.0,50,-99.99,,,0.00,weatherlink.com 1.10,2013-03-01 18:38:00,
2013-03-01 13:53:00,54.3,35.0,29.88,NE,43,1.0,-999.0,49,-99.99,,,0.00,weatherlink.com 1.10,2013-03-01 18:53:00,
2013-03-01 14:08:00,54.2,36.0,29.87,WNW,296,0.0,-999.0,50,-99.99,,,0.00,weatherlink.com 1.10,2013-03-01 19:08:00,
2013-03-01 14:23:00,53.9,35.0,29.86,WSW,253,1.0,-999.0,50,-99.99,,,0.00,weatherlink.com 1.10,2013-03-01 19:23:00,
2013-03-01 14:38:00,54.1,36.0,29.86,WSW,250,1.0,-999.0,50,-99.99,,,0.00,weatherlink.com 1.10,2013-03-01 19:38:00,
2013-03-01 14:53:00,54.5,36.0,29.86,SW,230,0.0,-999.0,50,-99.99,,,0.00,weatherlink.com 1.10,2013-03-01 19:53:00,
2013-03-01 15:09:00,54.6,36.0,29.85,NNW,337,0.0,-999.0,50,-99.99,,,0.00,weatherlink.com 1.10,2013-03-01 20:09:00,
2013-03-01 15:24:00,54.8,36.0,29.85,WNW,303,1.0,-999.0,50,-99.99,,,0.00,weatherlink.com 1.10,2013-03-01 20:24:00,
2013-03-01 15:39:00,54.7,36.0,29.85,NW,324,1.0,-999.0,49,-99.99,,,0.00,weatherlink.com 1.10,2013-03-01 20:39:00,
2013-03-01 15:54:00,54.5,35.0,29.85,WNW,294,0.0,-999.0,49,-99.99,,,0.00,weatherlink.com 1.10,2013-03-01 20:54:00,
2013-03-01 16:09:00,54.4,35.0,29.86,NW,325,0.0,-999.0,49,-99.99,,,0.00,weatherlink.com 1.10,2013-03-01 21:09:00,
2013-03-01 16:24:00,54.0,36.0,29.86,WSW,257,0.0,-999.0,51,-99.99,,,0.00,weatherlink.com 1.10,2013-03-01 21:24:00,
2013-03-01 16:39:00,53.7,35.0,29.86,WSW,258,0.0,-999.0,50,-99.99,,,0.00,weatherlink.com 1.10,2013-03-01 21:39:00,
2013-03-01 16:54:00,53.6,36.0,29.86,WNW,302,0.0,-999.0,52,-99.99,,,0.00,weatherlink.com 1.10,2013-03-01 21:54:00,
2013-03-01 17:09:00,53.2,37.0,29.87,WNW,302,0.0,-999.0,54,-99.99,,,0.00,weatherlink.com 1.10,2013-03-01 22:09:00,
2013-03-01 17:24:00,52.6,37.0,29.86,WNW,290,0.0,-999.0,55,-99.99,,,0.00,weatherlink.com 1.10,2013-03-01 22:24:00,
2013-03-01 17:39:00,52.1,36.0,29.86,WNW,290,0.0,-999.0,55,-99.99,,,0.00,weatherlink.com 1.10,2013-03-01 22:39:00,
2013-03-01 17:54:00,51.5,37.0,29.87,WNW,290,0.0,-999.0,57,-99.99,,,0.00,weatherlink.com 1.10,2013-03-01 22:54:00,
2013-03-01 18:09:00,50.9,36.0,29.89,WNW,290,0.0,-999.0,57,-99.99,,,0.00,weatherlink.com 1.10,2013-03-01 23:09:00,
2013-03-01 18:24:00,50.4,36.0,29.89,WNW,290,0.0,-999.0,58,-99.99,,,0.00,weatherlink.com 1.10,2013-03-01 23:24:00,
2013-03-01 18:39:00,49.8,36.0,29.89,WNW,290,0.0,-999.0,59,-99.99,,,0.00,weatherlink.com 1.10,2013-03-01 23:39:00,
2013-03-01 18:54:00,49.2,37.0,29.89,WNW,290,0.0,-999.0,63,-99.99,,,0.00,weatherlink.com 1.10,2013-03-01 23:54:00,
2013-03-01 19:09:00,48.6,37.0,29.89,WNW,290,0.0,-999.0,65,-99.99,,,0.00,weatherlink.com 1.10,2013-03-02 00:09:00,
2013-03-01 19:24:00,47.9,37.0,29.90,WNW,290,0.0,-999.0,66,-99.99,,,0.00,weatherlink.com 1.10,2013-03-02 00:24:00,
2013-03-01 19:39:00,47.3,38.0,29.90,WNW,290,0.0,-999.0,69,-99.99,,,0.00,weatherlink.com 1.10,2013-03-02 00:39:00,
2013-03-01 19:54:00,46.9,38.0,29.90,WNW,290,0.0,-999.0,70,-99.99,,,0.00,weatherlink.com 1.10,2013-03-02 00:54:00,
2013-03-01 20:09:00,46.5,38.0,29.90,WNW,290,0.0,-999.0,73,-99.99,,,0.00,weatherlink.com 1.10,2013-03-02 01:09:00,
2013-03-01 20:24:00,46.1,38.0,29.90,WNW,290,0.0,-999.0,74,-99.99,,,0.00,weatherlink.com 1.10,2013-03-02 01:24:00,
2013-03-01 20:39:00,45.6,38.0,29.91,WNW,290,0.0,-999.0,75,-99.99,,,0.00,weatherlink.com 1.10,2013-03-02 01:39:00,
2013-03-01 20:54:00,45.2,38.0,29.90,WNW,290,0.0,-999.0,76,-99.99,,,0.00,weatherlink.com 1.10,2013-03-02 01:54:00,
2013-03-01 21:09:00,44.9,38.0,29.91,WNW,290,0.0,-999.0,77,-99.99,,,0.00,weatherlink.com 1.10,2013-03-02 02:09:00,
2013-03-01 21:24:00,44.6,38.0,29.91,WNW,290,0.0,-999.0,78,-99.99,,,0.00,weatherlink.com 1.10,2013-03-02 02:24:00,
2013-03-01 21:39:00,44.2,38.0,29.91,WNW,290,0.0,-999.0,79,-99.99,,,0.00,weatherlink.com 1.10,2013-03-02 02:39:00,
2013-03-01 21:54:00,43.8,38.0,29.92,WNW,290,0.0,-999.0,80,-99.99,,,0.00,weatherlink.com 1.10,2013-03-02 02:54:00,
2013-03-01 22:09:00,43.5,38.0,29.92,WNW,290,0.0,-999.0,81,-99.99,,,0.00,weatherlink.com 1.10,2013-03-02 03:09:00,
2013-03-01 22:24:00,43.2,38.0,29.92,WNW,290,0.0,-999.0,81,-99.99,,,0.00,weatherlink.com 1.10,2013-03-02 03:24:00,
2013-03-01 22:39:00,42.7,37.0,29.92,WNW,290,0.0,-999.0,81,-99.99,,,0.00,weatherlink.com 1.10,2013-03-02 03:39:00,
2013-03-01 22:54:00,42.1,37.0,29.92,WNW,290,0.0,-999.0,82,-99.99,,,0.00,weatherlink.com 1.10,2013-03-02 03:54:00,
2013-03-01 23:09:00,41.8,37.0,29.91,WNW,290,0.0,-999.0,83,-99.99,,,0.00,weatherlink.com 1.10,2013-03-02 04:09:00,
2013-03-01 23:24:00,41.5,37.0,29.91,WNW,290,0.0,-999.0,83,-99.99,,,0.00,weatherlink.com 1.10,2013-03-02 04:24:00,
2013-03-01 23:39:00,40.8,36.0,29.91,WNW,290,0.0,-999.0,84,-99.99,,,0.00,weatherlink.com 1.10,2013-03-02 04:39:00,
2013-03-01 23:54:00,40.3,36.0,29.92,WNW,290,0.0,-999.0,85,-99.99,,,0.00,weatherlink.com 1.10,2013-03-02 04:54:00,